< Typhoon 195714 1957 Season Typhoon 195716 >
Typhoon 195715 (GLORIA)
General InformationTrack Information on Google Maps || Disaster Info.ResourceGoogle EarthGE AnimationAtom FeedGeoJSON
Detalied Best Track (Time Zone = UTC)
Year Month Day Hour Lat. Long. Pressure (hPa) Wind (kt) Class Image Chart
1957 9 17 18 12.0 134.0 1006 0 2 -- Chart
1957 9 18 00 12.0 133.6 1006 0 2 -- Chart
1957 9 18 06 12.0 133.0 1004 0 2 -- Chart
1957 9 18 12 13.0 132.0 1000 0 2 -- Chart
1957 9 18 18 13.0 131.0 1000 0 2 -- Chart
1957 9 19 00 13.9 130.5 1000 0 2 -- Chart
1957 9 19 06 14.6 129.5 1000 0 2 -- Chart
1957 9 19 12 14.7 128.0 998 0 9 -- Chart
1957 9 19 18 16.3 126.4 998 0 9 -- Chart
1957 9 20 00 16.1 125.0 998 0 9 -- Chart
1957 9 20 06 17.0 123.4 990 0 9 -- Chart
1957 9 20 12 17.8 121.7 990 0 9 -- Chart
1957 9 20 18 18.6 120.3 990 0 9 -- Chart
1957 9 21 00 19.0 119.0 980 0 9 -- Chart
1957 9 21 06 19.6 118.1 980 0 9 -- Chart
1957 9 21 12 20.0 117.3 980 0 9 -- Chart
1957 9 21 18 20.2 116.2 980 0 9 -- Chart
1957 9 22 00 20.6 115.0 980 0 9 -- Chart
1957 9 22 06 21.2 114.2 980 0 9 -- Chart
1957 9 22 12 21.6 113.6 980 0 9 -- Chart
1957 9 22 18 22.0 113.0 980 0 9 -- Chart
1957 9 23 00 22.0 112.0 985 0 9 -- Chart
1957 9 23 06 22.3 111.6 995 0 9 -- Chart
1957 9 23 12 22.9 111.8 995 0 9 -- Chart
1957 9 23 18 23.1 112.0 998 0 9 -- Chart
1957 9 24 00 24.0 112.0 1000 0 2 -- Chart
1957 9 24 06 24.0 113.1 1004 0 2 -- Chart
1957 9 24 12 23.7 114.0 1004 0 2 -- Chart
1957 9 24 18 23.2 115.0 1006 0 2 -- Chart
Japan Meteorological Agency Best Track Data | Correction Date : 1989-06-01
< Typhoon 195714 1957 Season Typhoon 195716 >

Help